Time;durP1;ratioP1;P1;durP2;ratioP2;P2;SDS_P1;SDS_P2;PMS_P1;PMS_P2;Temp;Humidity;BMP_temperature;BMP_pressure;BME280_temperature;BME280_humidity;BME280_pressure;Samples;Min_cycle;Max_cycle;Signal;HPM_P1;HPM_P2
2021/12/23 00:02:11;;;;;;;;;35.00;34.00;;;;;;;;5112795;27;45399;-80
2021/12/23 00:04:36;;;;;;;;;38.67;37.00;;;;;;;;5112920;27;45567;-81
2021/12/23 00:07:02;;;;;;;;;39.00;32.00;;;;;;;;5116303;27;45307;-80
2021/12/23 00:09:49;;;;;;;;;46.00;40.00;;;;;;;;5117729;27;45709;-80
2021/12/23 00:12:12;;;;;;;;;46.00;40.50;;;;;;;;5117306;27;45525;-83
2021/12/23 00:14:38;;;;;;;;;40.33;36.00;;;;;;;;5117668;27;45380;-82
2021/12/23 00:17:38;;;;;;;;;37.75;34.75;;;;;;;;5117983;27;45424;-80
2021/12/23 00:25:16;;;;;;;;;46.50;40.75;;;;;;;;5117627;27;45368;-84
2021/12/23 00:27:41;;;;;;;;;52.67;42.33;;;;;;;;5117846;27;45564;-81
2021/12/23 00:30:07;;;;;;;;;42.67;39.33;;;;;;;;5115750;27;48184;-83
2021/12/23 00:32:32;;;;;;;;;53.25;39.75;;;;;;;;5117166;27;45507;-81
2021/12/23 00:34:57;;;;;;;;;42.00;36.00;;;;;;;;5117596;27;45219;-81
2021/12/23 00:37:23;;;;;;;;;46.25;36.50;;;;;;;;5117212;27;45522;-83
2021/12/23 00:39:48;;;;;;;;;45.67;40.00;;;;;;;;5116528;27;46727;-83
2021/12/23 00:42:13;;;;;;;;;48.67;42.33;;;;;;;;5117508;27;45388;-82
2021/12/23 00:44:47;;;;;;;;;45.67;41.33;;;;;;;;5117196;27;45309;-80
2021/12/23 00:47:12;;;;;;;;;46.25;42.50;;;;;;;;5115610;27;45489;-80
2021/12/23 00:49:37;;;;;;;;;46.00;41.67;;;;;;;;5117360;27;46008;-80
2021/12/23 00:52:03;;;;;;;;;61.75;47.75;;;;;;;;5117809;27;45281;-82
2021/12/23 00:54:29;;;;;;;;;41.50;39.50;;;;;;;;5118830;27;45438;-83
2021/12/23 00:56:54;;;;;;;;;37.33;35.67;;;;;;;;5138163;27;45362;-84
2021/12/23 00:59:19;;;;;;;;;49.67;43.00;;;;;;;;5138231;27;46400;-83
2021/12/23 01:01:46;;;;;;;;;45.00;41.00;;;;;;;;5119074;27;45463;-84
2021/12/23 01:04:12;;;;;;;;;44.50;39.75;;;;;;;;5119282;27;45339;-83
2021/12/23 01:06:37;;;;;;;;;49.67;42.33;;;;;;;;5119073;27;45540;-84
2021/12/23 01:09:02;;;;;;;;;49.00;42.33;;;;;;;;5118746;27;48169;-83
2021/12/23 01:11:28;;;;;;;;;48.50;41.75;;;;;;;;5118860;27;45462;-83
2021/12/23 01:14:24;;;;;;;;;40.25;36.00;;;;;;;;5137910;27;45460;-83
2021/12/23 01:19:21;;;;;;;;;46.25;41.00;;;;;;;;5137230;27;45526;-84
2021/12/23 01:21:46;;;;;;;;;47.33;39.67;;;;;;;;5118804;27;45371;-83
2021/12/23 01:24:12;;;;;;;;;47.33;42.00;;;;;;;;5137295;27;45397;-84
2021/12/23 01:26:38;;;;;;;;;38.33;36.33;;;;;;;;5137330;27;45335;-83
2021/12/23 01:29:03;;;;;;;;;42.00;33.75;;;;;;;;5136951;27;45381;-81
2021/12/23 01:31:29;;;;;;;;;40.67;36.33;;;;;;;;5118465;27;45387;-82
2021/12/23 01:33:55;;;;;;;;;38.25;35.25;;;;;;;;5118945;27;45363;-81
2021/12/23 01:36:20;;;;;;;;;40.33;36.00;;;;;;;;5136800;27;45504;-80
2021/12/23 01:38:45;;;;;;;;;42.75;38.50;;;;;;;;5117796;27;47177;-84
2021/12/23 01:41:11;;;;;;;;;44.50;39.25;;;;;;;;5136908;27;45402;-82
2021/12/23 01:43:36;;;;;;;;;44.67;36.67;;;;;;;;5137139;27;45360;-80
2021/12/23 01:46:02;;;;;;;;;44.00;38.67;;;;;;;;5118291;27;46037;-80
2021/12/23 01:48:27;;;;;;;;;50.00;43.00;;;;;;;;5136500;27;46507;-84
2021/12/23 01:50:52;;;;;;;;;41.33;37.00;;;;;;;;5136793;27;45314;-79
2021/12/23 01:53:18;;;;;;;;;47.50;41.50;;;;;;;;5117818;27;45896;-84
2021/12/23 01:55:43;;;;;;;;;37.67;28.33;;;;;;;;5136797;27;45236;-79
2021/12/23 01:58:10;;;;;;;;;41.25;37.25;;;;;;;;5136880;27;45350;-83
2021/12/23 02:00:36;;;;;;;;;42.00;41.00;;;;;;;;5136595;27;45682;-80
2021/12/23 02:03:02;;;;;;;;;41.00;31.00;;;;;;;;5118054;27;45389;-79
2021/12/23 02:05:28;;;;;;;;;34.25;32.50;;;;;;;;5117992;27;45650;-84
2021/12/23 02:07:53;;;;;;;;;53.25;43.25;;;;;;;;5136084;27;46472;-80
2021/12/23 02:10:19;;;;;;;;;47.33;37.00;;;;;;;;5117893;27;45363;-84
2021/12/23 02:12:45;;;;;;;;;54.67;44.00;;;;;;;;5136525;27;45511;-82
2021/12/23 02:15:11;;;;;;;;;42.00;35.50;;;;;;;;5136509;27;45293;-80
2021/12/23 02:17:37;;;;;;;;;46.50;40.25;;;;;;;;5136162;27;46122;-83
2021/12/23 02:20:03;;;;;;;;;46.25;41.75;;;;;;;;5117606;27;45556;-84
2021/12/23 02:22:28;;;;;;;;;50.00;42.25;;;;;;;;5136467;27;45477;-80
2021/12/23 02:24:53;;;;;;;;;41.00;37.33;;;;;;;;5135613;27;45420;-84
2021/12/23 02:27:19;;;;;;;;;38.33;37.00;;;;;;;;5116743;27;47428;-81
2021/12/23 02:29:44;;;;;;;;;51.33;42.67;;;;;;;;5117798;27;45836;-83
2021/12/23 02:32:09;;;;;;;;;53.33;41.67;;;;;;;;5136096;27;45341;-80
2021/12/23 02:34:34;;;;;;;;;49.00;41.00;;;;;;;;5117754;27;45569;-83
2021/12/23 02:37:00;;;;;;;;;47.67;41.67;;;;;;;;5135797;27;47792;-80
2021/12/23 02:39:29;;;;;;;;;46.75;42.25;;;;;;;;5135633;27;45417;-79
2021/12/23 02:41:54;;;;;;;;;41.75;32.75;;;;;;;;5136258;27;45324;-83
2021/12/23 02:44:19;;;;;;;;;56.50;44.25;;;;;;;;5136170;27;45566;-81
2021/12/23 02:46:45;;;;;;;;;47.25;41.00;;;;;;;;5117084;27;48545;-83
2021/12/23 02:49:11;;;;;;;;;50.75;44.25;;;;;;;;5136087;27;45507;-82
2021/12/23 02:51:37;;;;;;;;;49.00;42.75;;;;;;;;5117631;27;45467;-81
2021/12/23 02:54:02;;;;;;;;;61.25;42.75;;;;;;;;5135465;27;45472;-82
2021/12/23 02:56:27;;;;;;;;;52.25;44.50;;;;;;;;5117021;27;47400;-83
2021/12/23 02:58:53;;;;;;;;;46.33;41.33;;;;;;;;5135538;27;45282;-80
2021/12/23 03:01:19;;;;;;;;;40.67;37.33;;;;;;;;5136127;27;45285;-81
2021/12/23 03:03:44;;;;;;;;;42.00;35.25;;;;;;;;5117192;27;45619;-80
2021/12/23 03:06:11;;;;;;;;;49.00;41.00;;;;;;;;5116876;27;47347;-83
2021/12/23 03:08:36;;;;;;;;;47.25;41.75;;;;;;;;5135295;27;45491;-81
2021/12/23 03:11:02;;;;;;;;;48.00;40.67;;;;;;;;5135890;27;45344;-83
2021/12/23 03:13:27;;;;;;;;;42.50;39.75;;;;;;;;5116984;27;45549;-80
2021/12/23 03:15:52;;;;;;;;;42.75;38.75;;;;;;;;5135392;27;45363;-80
2021/12/23 03:18:18;;;;;;;;;47.25;42.75;;;;;;;;5135137;27;45367;-83
2021/12/23 03:20:43;;;;;;;;;47.67;41.67;;;;;;;;5117128;27;45393;-84
2021/12/23 03:23:08;;;;;;;;;35.67;33.00;;;;;;;;5135577;27;45396;-84
2021/12/23 03:25:33;;;;;;;;;48.33;41.33;;;;;;;;5135541;27;46215;-84
2021/12/23 03:27:59;;;;;;;;;50.67;42.67;;;;;;;;5116968;27;46047;-84
2021/12/23 03:30:24;;;;;;;;;47.00;42.67;;;;;;;;5136135;27;45720;-84
2021/12/23 03:32:49;;;;;;;;;48.33;42.67;;;;;;;;5116964;27;45547;-84
2021/12/23 03:35:16;;;;;;;;;39.67;36.00;;;;;;;;5116369;27;48530;-83
2021/12/23 03:37:41;;;;;;;;;45.75;39.00;;;;;;;;5116317;27;45583;-83
2021/12/23 03:40:07;;;;;;;;;51.33;42.67;;;;;;;;5135848;27;45590;-84
2021/12/23 03:42:32;;;;;;;;;48.50;40.25;;;;;;;;5116336;27;45666;-84
2021/12/23 03:44:57;;;;;;;;;42.00;39.00;;;;;;;;5116285;27;48367;-81
2021/12/23 03:47:22;;;;;;;;;47.33;38.00;;;;;;;;5135072;27;45258;-80
2021/12/23 03:49:48;;;;;;;;;43.00;37.33;;;;;;;;5134974;27;45482;-83
2021/12/23 03:52:13;;;;;;;;;50.33;39.33;;;;;;;;5135025;27;45585;-79
2021/12/23 03:54:38;;;;;;;;;44.33;38.67;;;;;;;;5115764;27;48481;-80
2021/12/23 03:57:03;;;;;;;;;54.33;43.00;;;;;;;;5134947;27;45533;-79
2021/12/23 03:59:29;;;;;;;;;44.75;40.00;;;;;;;;5116325;27;45415;-81
2021/12/23 04:01:54;;;;;;;;;50.00;42.33;;;;;;;;5116435;27;45596;-82
2021/12/23 04:04:19;;;;;;;;;43.67;39.33;;;;;;;;5116125;27;48352;-81
2021/12/23 04:06:45;;;;;;;;;52.67;40.00;;;;;;;;5116180;27;45977;-79
2021/12/23 04:09:10;;;;;;;;;43.75;40.50;;;;;;;;5116117;27;45548;-80
2021/12/23 04:11:35;;;;;;;;;44.67;36.67;;;;;;;;5134830;27;45456;-83
2021/12/23 04:14:00;;;;;;;;;38.33;35.00;;;;;;;;5116354;27;47865;-85
2021/12/23 04:16:25;;;;;;;;;49.33;42.00;;;;;;;;5116010;27;45772;-81
2021/12/23 04:18:51;;;;;;;;;47.00;42.00;;;;;;;;5116044;27;45354;-81
2021/12/23 04:21:18;;;;;;;;;40.50;36.25;;;;;;;;5115938;27;45656;-83
2021/12/23 04:23:43;;;;;;;;;35.50;31.75;;;;;;;;5115602;27;47277;-81
2021/12/23 04:26:09;;;;;;;;;54.25;42.50;;;;;;;;5134154;27;45373;-84
2021/12/23 04:28:44;;;;;;;;;45.50;35.75;;;;;;;;5116026;27;45383;-80
2021/12/23 04:31:09;;;;;;;;;40.75;38.25;;;;;;;;5134707;27;45316;-84
2021/12/23 04:33:35;;;;;;;;;43.67;39.33;;;;;;;;5115584;27;48096;-80
2021/12/23 04:36:00;;;;;;;;;50.00;41.00;;;;;;;;5115842;27;45579;-84
2021/12/23 04:38:25;;;;;;;;;47.00;41.67;;;;;;;;5134224;27;45466;-81
2021/12/23 04:40:50;;;;;;;;;53.00;42.67;;;;;;;;5115868;27;45471;-80
2021/12/23 04:43:15;;;;;;;;;47.00;42.67;;;;;;;;5115997;27;47110;-83
2021/12/23 04:45:40;;;;;;;;;48.00;44.00;;;;;;;;5115638;27;45470;-83
2021/12/23 04:48:06;;;;;;;;;42.67;40.33;;;;;;;;5134188;27;45494;-83
2021/12/23 04:50:31;;;;;;;;;41.33;35.00;;;;;;;;5134673;27;45245;-80
2021/12/23 04:52:56;;;;;;;;;49.00;42.33;;;;;;;;5118430;27;48196;-83
2021/12/23 04:55:22;;;;;;;;;43.75;39.50;;;;;;;;5137865;27;45481;-81
2021/12/23 04:57:47;;;;;;;;;45.25;40.75;;;;;;;;5137929;27;45469;-82
2021/12/23 05:00:17;;;;;;;;;43.33;39.33;;;;;;;;5137730;27;45664;-83
2021/12/23 05:02:42;;;;;;;;;50.00;41.00;;;;;;;;5132619;27;46158;-84
2021/12/23 05:05:08;;;;;;;;;46.75;43.00;;;;;;;;5118618;27;45549;-81
2021/12/23 05:07:33;;;;;;;;;37.50;34.75;;;;;;;;5118658;27;45433;-79
2021/12/23 05:09:58;;;;;;;;;49.33;43.67;;;;;;;;5137607;27;45678;-82
2021/12/23 05:12:24;;;;;;;;;40.67;36.00;;;;;;;;5137210;27;45519;-80
2021/12/23 05:14:49;;;;;;;;;51.75;42.25;;;;;;;;5137344;27;45432;-80
2021/12/23 05:17:14;;;;;;;;;47.33;42.67;;;;;;;;5118693;27;45428;-82
2021/12/23 05:19:39;;;;;;;;;42.67;39.33;;;;;;;;5137294;27;45669;-81
2021/12/23 05:22:05;;;;;;;;;40.00;36.00;;;;;;;;5137182;27;45547;-83
2021/12/23 05:24:30;;;;;;;;;46.50;41.50;;;;;;;;5118062;27;45402;-82
2021/12/23 05:26:55;;;;;;;;;49.25;43.75;;;;;;;;5118548;27;45413;-84
2021/12/23 05:29:21;;;;;;;;;41.33;40.33;;;;;;;;5118683;27;45534;-80
2021/12/23 05:31:46;;;;;;;;;41.00;38.75;;;;;;;;5118330;27;45981;-81
2021/12/23 05:34:11;;;;;;;;;50.33;41.00;;;;;;;;5118869;27;45465;-80
2021/12/23 05:36:36;;;;;;;;;46.33;42.00;;;;;;;;5137084;27;45345;-80
2021/12/23 05:39:02;;;;;;;;;44.00;41.67;;;;;;;;5136442;27;45732;-81
2021/12/23 05:41:28;;;;;;;;;50.75;41.75;;;;;;;;5118301;27;46900;-81
2021/12/23 05:43:54;;;;;;;;;45.67;41.67;;;;;;;;5118440;27;45964;-85
2021/12/23 05:46:19;;;;;;;;;44.75;40.75;;;;;;;;5118831;27;45514;-84
2021/12/23 05:48:44;;;;;;;;;59.00;44.33;;;;;;;;5137680;27;45532;-84
2021/12/23 05:51:09;;;;;;;;;40.00;37.33;;;;;;;;5137252;27;45298;-84
2021/12/23 05:53:34;;;;;;;;;49.33;40.33;;;;;;;;5117932;27;45658;-84
2021/12/23 05:55:59;;;;;;;;;51.33;43.33;;;;;;;;5118637;27;45340;-83
2021/12/23 05:58:25;;;;;;;;;40.67;39.33;;;;;;;;5136639;27;45521;-84
2021/12/23 06:00:53;;;;;;;;;48.67;42.33;;;;;;;;5118676;27;48155;-83
2021/12/23 06:03:18;;;;;;;;;51.50;43.00;;;;;;;;5117045;27;45551;-80
2021/12/23 06:05:43;;;;;;;;;45.25;40.25;;;;;;;;5137094;27;45489;-80
2021/12/23 06:08:09;;;;;;;;;54.67;43.67;;;;;;;;5117719;27;45432;-83
2021/12/23 06:10:34;;;;;;;;;46.67;42.33;;;;;;;;5136169;27;48103;-79
2021/12/23 06:12:59;;;;;;;;;48.67;42.33;;;;;;;;5136547;27;45521;-82
2021/12/23 06:15:24;;;;;;;;;49.00;43.00;;;;;;;;5117572;27;45262;-79
2021/12/23 06:17:49;;;;;;;;;55.00;45.67;;;;;;;;5117881;27;45313;-80
2021/12/23 06:20:15;;;;;;;;;52.33;40.67;;;;;;;;5117421;27;47800;-83
2021/12/23 06:22:40;;;;;;;;;59.00;45.33;;;;;;;;5117117;27;45618;-82
2021/12/23 06:25:08;;;;;;;;;41.00;37.00;;;;;;;;5117941;27;45389;-80
2021/12/23 06:27:34;;;;;;;;;42.00;37.50;;;;;;;;5135970;27;45461;-80
2021/12/23 06:29:59;;;;;;;;;43.50;37.25;;;;;;;;5117378;27;46104;-81
2021/12/23 06:32:24;;;;;;;;;54.75;43.00;;;;;;;;5136208;27;45590;-82
2021/12/23 06:34:50;;;;;;;;;52.67;45.33;;;;;;;;5136313;27;45274;-81
2021/12/23 06:37:15;;;;;;;;;50.33;43.67;;;;;;;;5135552;27;45584;-83
2021/12/23 06:39:40;;;;;;;;;50.50;43.00;;;;;;;;5117004;27;47273;-80
2021/12/23 06:42:06;;;;;;;;;54.33;43.67;;;;;;;;5135958;27;45428;-81
2021/12/23 06:44:31;;;;;;;;;60.50;46.50;;;;;;;;5117218;27;45407;-84
2021/12/23 06:46:56;;;;;;;;;46.33;40.33;;;;;;;;5135801;27;45590;-84
2021/12/23 06:49:21;;;;;;;;;47.33;42.00;;;;;;;;5117370;27;48960;-80
2021/12/23 06:51:47;;;;;;;;;59.00;46.33;;;;;;;;5135812;27;45388;-80
2021/12/23 06:54:16;;;;;;;;;48.00;40.00;;;;;;;;5116546;27;45431;-80
2021/12/23 06:56:41;;;;;;;;;43.25;39.00;;;;;;;;5135957;27;45475;-84
2021/12/23 06:59:06;;;;;;;;;45.33;39.67;;;;;;;;5116836;27;48742;-82
2021/12/23 07:01:32;;;;;;;;;56.50;45.50;;;;;;;;5117009;27;45492;-80
2021/12/23 07:06:26;;;;;;;;;47.50;43.25;;;;;;;;5135735;27;45102;-81
2021/12/23 07:08:54;;;;;;;;;52.25;43.25;;;;;;;;5116548;27;47042;-81
2021/12/23 07:11:19;;;;;;;;;46.50;40.50;;;;;;;;5116864;27;45605;-83
2021/12/23 07:13:44;;;;;;;;;47.33;41.33;;;;;;;;5135438;27;45500;-81
2021/12/23 07:16:09;;;;;;;;;57.00;47.00;;;;;;;;5116778;27;45650;-81
2021/12/23 07:18:34;;;;;;;;;54.00;41.33;;;;;;;;5135465;27;45733;-79
2021/12/23 07:21:00;;;;;;;;;51.00;46.00;;;;;;;;5116407;27;45520;-83
2021/12/23 07:23:25;;;;;;;;;42.67;40.67;;;;;;;;5135180;27;45323;-82
2021/12/23 07:25:50;;;;;;;;;44.33;41.00;;;;;;;;5116880;27;45703;-83
2021/12/23 07:28:15;;;;;;;;;52.67;43.67;;;;;;;;5116251;27;47859;-80
2021/12/23 07:30:41;;;;;;;;;59.67;44.00;;;;;;;;5116459;27;46285;-82
2021/12/23 07:33:06;;;;;;;;;47.67;41.67;;;;;;;;5116763;27;45337;-84
2021/12/23 07:35:31;;;;;;;;;46.00;41.33;;;;;;;;5135684;27;45473;-84
2021/12/23 07:38:00;;;;;;;;;50.00;41.67;;;;;;;;5114863;27;47847;-83
2021/12/23 07:40:26;;;;;;;;;49.25;42.00;;;;;;;;5116296;27;45570;-80
2021/12/23 07:42:54;;;;;;;;;49.25;44.50;;;;;;;;5116430;27;45459;-81
2021/12/23 07:45:24;;;;;;;;;44.00;40.75;;;;;;;;5116478;27;45420;-84
2021/12/23 07:47:50;;;;;;;;;53.50;45.25;;;;;;;;5115987;27;46200;-83
2021/12/23 07:50:15;;;;;;;;;43.75;40.75;;;;;;;;5135048;27;45255;-80
2021/12/23 07:52:40;;;;;;;;;45.33;39.67;;;;;;;;5134885;27;45527;-80
2021/12/23 07:55:06;;;;;;;;;50.00;42.00;;;;;;;;5134988;27;45525;-83
2021/12/23 07:57:31;;;;;;;;;50.00;43.25;;;;;;;;5116000;27;47184;-83
2021/12/23 07:59:58;;;;;;;;;61.33;48.00;;;;;;;;5134811;27;45502;-83
2021/12/23 08:02:23;;;;;;;;;48.00;44.25;;;;;;;;5116340;27;45348;-84
2021/12/23 08:04:48;;;;;;;;;48.33;43.00;;;;;;;;5134923;27;45432;-82
2021/12/23 08:07:13;;;;;;;;;47.00;40.33;;;;;;;;5134427;27;46311;-80
2021/12/23 08:09:38;;;;;;;;;54.67;45.33;;;;;;;;5135441;27;45526;-84
2021/12/23 08:12:05;;;;;;;;;62.33;49.33;;;;;;;;5135125;27;45459;-84
2021/12/23 08:14:31;;;;;;;;;47.00;41.00;;;;;;;;5135188;27;45342;-84
2021/12/23 08:16:56;;;;;;;;;51.75;44.00;;;;;;;;5134801;27;45435;-84
2021/12/23 08:19:21;;;;;;;;;52.33;45.00;;;;;;;;5135122;27;45339;-84
2021/12/23 08:21:46;;;;;;;;;46.00;43.33;;;;;;;;5135299;27;45360;-84
2021/12/23 08:24:12;;;;;;;;;54.00;44.67;;;;;;;;5134591;27;45397;-82
2021/12/23 08:26:42;;;;;;;;;61.33;47.33;;;;;;;;5117832;27;46198;-80
2021/12/23 08:29:08;;;;;;;;;61.00;48.25;;;;;;;;5119564;27;45607;-83
2021/12/23 08:31:33;;;;;;;;;64.00;50.50;;;;;;;;5119631;27;45446;-80
2021/12/23 08:33:58;;;;;;;;;59.50;49.00;;;;;;;;5119379;27;45385;-81
2021/12/23 08:36:24;;;;;;;;;57.33;48.67;;;;;;;;5138723;27;45834;-82
2021/12/23 08:38:49;;;;;;;;;54.25;45.75;;;;;;;;5137579;27;45345;-80
2021/12/23 08:41:15;;;;;;;;;53.67;47.33;;;;;;;;5119628;27;45358;-83
2021/12/23 08:43:40;;;;;;;;;53.50;42.50;;;;;;;;5138453;27;45403;-83
2021/12/23 08:46:05;;;;;;;;;48.00;42.33;;;;;;;;5137887;27;46250;-82
2021/12/23 08:48:31;;;;;;;;;61.33;50.33;;;;;;;;5119342;27;45371;-84
2021/12/23 08:50:56;;;;;;;;;63.00;48.00;;;;;;;;5138097;27;45466;-80
2021/12/23 08:53:21;;;;;;;;;52.00;43.33;;;;;;;;5137645;27;45748;-82
2021/12/23 08:55:47;;;;;;;;;58.00;48.00;;;;;;;;5138417;27;46476;-79
2021/12/23 08:58:12;;;;;;;;;58.67;46.67;;;;;;;;5137911;27;45480;-84
2021/12/23 09:00:39;;;;;;;;;59.25;48.00;;;;;;;;5138106;27;45430;-82
2021/12/23 09:03:06;;;;;;;;;58.50;47.75;;;;;;;;5137911;27;45416;-80
2021/12/23 09:05:31;;;;;;;;;53.50;42.75;;;;;;;;5118979;27;46559;-83
2021/12/23 09:07:57;;;;;;;;;57.00;47.00;;;;;;;;5137288;27;45348;-80
2021/12/23 09:10:22;;;;;;;;;56.33;46.67;;;;;;;;5137878;27;45394;-84
2021/12/23 09:12:49;;;;;;;;;53.25;44.00;;;;;;;;5137729;27;45381;-84
2021/12/23 09:15:14;;;;;;;;;50.75;43.25;;;;;;;;5137330;27;45469;-81
2021/12/23 09:17:39;;;;;;;;;53.00;46.00;;;;;;;;5137637;27;45424;-84
2021/12/23 09:20:06;;;;;;;;;66.33;53.00;;;;;;;;5137456;27;45338;-83
2021/12/23 09:22:31;;;;;;;;;60.25;50.25;;;;;;;;5137233;27;45526;-83
2021/12/23 09:25:03;;;;;;;;;65.25;52.00;;;;;;;;5137248;27;45397;-83
2021/12/23 09:27:36;;;;;;;;;63.00;49.75;;;;;;;;5137258;27;45380;-83
2021/12/23 09:32:53;;;;;;;;;61.75;49.25;;;;;;;;5137379;27;45294;-82
2021/12/23 09:35:20;;;;;;;;;58.50;47.25;;;;;;;;5137291;27;45491;-84
2021/12/23 09:37:45;;;;;;;;;65.00;53.00;;;;;;;;5117759;27;45621;-83
2021/12/23 09:40:11;;;;;;;;;67.67;54.67;;;;;;;;5136752;27;45310;-82
2021/12/23 09:42:37;;;;;;;;;72.67;57.00;;;;;;;;5137207;27;45531;-81
2021/12/23 09:45:06;;;;;;;;;69.00;53.75;;;;;;;;5136868;27;45386;-83
2021/12/23 09:47:34;;;;;;;;;59.50;49.25;;;;;;;;5137140;27;45345;-80
2021/12/23 09:50:00;;;;;;;;;59.50;47.50;;;;;;;;5137316;27;45452;-84
2021/12/23 09:52:30;;;;;;;;;45.75;41.50;;;;;;;;5136671;27;45362;-82
2021/12/23 09:54:56;;;;;;;;;52.25;43.75;;;;;;;;5118029;27;49191;-80
2021/12/23 09:57:21;;;;;;;;;46.25;39.50;;;;;;;;5117957;27;45321;-83
2021/12/23 09:59:47;;;;;;;;;44.75;41.25;;;;;;;;5136887;27;45472;-83
2021/12/23 10:02:12;;;;;;;;;43.33;36.33;;;;;;;;5118322;27;45354;-81
2021/12/23 10:04:37;;;;;;;;;44.25;39.25;;;;;;;;5118045;27;46177;-80
2021/12/23 10:07:03;;;;;;;;;54.67;43.33;;;;;;;;5118200;27;45930;-84
2021/12/23 10:09:59;;;;;;;;;43.25;38.75;;;;;;;;5136692;27;45320;-83
2021/12/23 10:31:28;;;;;;;;;36.00;31.75;;;;;;;;5136425;27;45383;-84
2021/12/23 10:37:14;;;;;;;;;32.75;30.25;;;;;;;;5103093;27;46073;-82
2021/12/23 10:39:43;;;;;;;;;37.25;34.50;;;;;;;;5136084;27;45341;-81
2021/12/23 10:42:20;;;;;;;;;41.25;37.00;;;;;;;;5136260;27;45358;-80
2021/12/23 10:44:48;;;;;;;;;41.00;36.50;;;;;;;;5136198;27;45394;-83
2021/12/23 10:47:32;;;;;;;;;45.50;39.75;;;;;;;;5136023;27;46240;-81
2021/12/23 10:50:39;;;;;;;;;41.00;38.50;;;;;;;;5135412;27;45705;-80
2021/12/23 10:53:10;;;;;;;;;34.50;32.75;;;;;;;;5084293;27;45665;-80
2021/12/23 10:58:20;;;;;;;;;34.25;30.50;;;;;;;;5135935;27;45773;-83
2021/12/23 11:00:49;;;;;;;;;33.25;29.50;;;;;;;;5135707;27;45401;-79
2021/12/23 11:03:29;;;;;;;;;40.25;35.75;;;;;;;;5117574;27;45355;-80
2021/12/23 11:06:14;;;;;;;;;37.75;30.75;;;;;;;;5135800;27;45481;-80
2021/12/23 11:11:28;;;;;;;;;31.00;26.50;;;;;;;;5135502;27;45306;-84
2021/12/23 11:28:29;;;;;;;;;41.25;36.50;;;;;;;;5102719;27;45428;-80
2021/12/23 11:43:52;;;;;;;;;39.25;35.50;;;;;;;;5135334;27;45750;-80
2021/12/23 11:46:27;;;;;;;;;29.50;29.00;;;;;;;;5116390;27;45373;-80
2021/12/23 11:48:53;;;;;;;;;37.50;30.25;;;;;;;;5135178;27;45322;-81
2021/12/23 11:51:22;;;;;;;;;34.00;30.50;;;;;;;;5116086;27;46688;-81
2021/12/23 11:53:49;;;;;;;;;34.00;31.50;;;;;;;;5134412;27;45842;-80
2021/12/23 11:56:15;;;;;;;;;33.00;30.50;;;;;;;;5135147;27;45562;-80
2021/12/23 11:58:45;;;;;;;;;33.00;31.25;;;;;;;;5116276;27;45429;-80
2021/12/23 12:01:14;;;;;;;;;35.50;32.50;;;;;;;;5137437;27;46512;-81
2021/12/23 12:03:54;;;;;;;;;35.25;30.25;;;;;;;;5119715;27;45846;-79
2021/12/23 12:06:23;;;;;;;;;33.75;30.25;;;;;;;;5138565;27;45500;-83
2021/12/23 12:08:51;;;;;;;;;30.50;30.00;;;;;;;;5138274;27;45483;-80
2021/12/23 12:11:21;;;;;;;;;38.25;31.75;;;;;;;;5138599;27;46778;-80
2021/12/23 12:13:48;;;;;;;;;35.50;33.50;;;;;;;;5138715;27;45818;-80
2021/12/23 12:16:32;;;;;;;;;33.00;29.75;;;;;;;;5138219;27;45482;-80
2021/12/23 12:18:58;;;;;;;;;34.75;32.50;;;;;;;;5119568;27;45481;-80
2021/12/23 12:21:24;;;;;;;;;37.00;32.50;;;;;;;;5138057;27;45536;-79
2021/12/23 12:24:10;;;;;;;;;34.00;30.25;;;;;;;;5137812;27;45505;-80
2021/12/23 12:26:49;;;;;;;;;29.50;28.25;;;;;;;;5118566;27;45371;-81
2021/12/23 12:29:15;;;;;;;;;30.50;27.50;;;;;;;;5138311;27;45333;-80
2021/12/23 12:31:42;;;;;;;;;26.50;25.50;;;;;;;;5119126;27;48430;-80
2021/12/23 12:34:11;;;;;;;;;28.25;24.00;;;;;;;;5138026;27;45364;-82
2021/12/23 12:36:44;;;;;;;;;26.75;25.00;;;;;;;;5138133;27;45385;-80
2021/12/23 12:39:10;;;;;;;;;33.25;29.50;;;;;;;;5119348;27;45495;-82
2021/12/23 12:41:36;;;;;;;;;27.00;26.00;;;;;;;;5119101;27;47094;-79
2021/12/23 12:44:28;;;;;;;;;25.75;23.25;;;;;;;;5138382;27;45295;-79
2021/12/23 12:49:33;;;;;;;;;31.25;28.00;;;;;;;;5137819;27;45359;-79
2021/12/23 12:52:14;;;;;;;;;29.75;25.50;;;;;;;;5137189;27;45409;-81
2021/12/23 12:54:40;;;;;;;;;36.50;31.75;;;;;;;;5119042;27;45754;-80
2021/12/23 12:57:07;;;;;;;;;29.00;26.75;;;;;;;;5137939;27;45515;-80
2021/12/23 12:59:37;;;;;;;;;31.50;30.00;;;;;;;;5118922;27;45458;-80
2021/12/23 13:02:17;;;;;;;;;33.75;27.25;;;;;;;;5118721;27;47462;-81
2021/12/23 13:04:48;;;;;;;;;28.00;27.00;;;;;;;;5137571;27;45688;-80
2021/12/23 13:07:18;;;;;;;;;29.00;27.00;;;;;;;;5118743;27;45622;-81
2021/12/23 13:09:53;;;;;;;;;34.75;29.75;;;;;;;;5118919;27;45487;-81
2021/12/23 13:12:54;;;;;;;;;29.00;26.00;;;;;;;;5136665;27;45754;-81
2021/12/23 13:15:23;;;;;;;;;28.75;27.00;;;;;;;;5015308;28;45778;-80
2021/12/23 13:17:58;;;;;;;;;29.00;26.50;;;;;;;;5099901;27;45336;-81
2021/12/23 13:20:33;;;;;;;;;27.00;24.25;;;;;;;;5137811;27;45592;-79
2021/12/23 13:22:59;;;;;;;;;25.25;24.75;;;;;;;;5136788;27;45543;-80
2021/12/23 13:25:25;;;;;;;;;31.00;27.00;;;;;;;;5137348;27;45652;-81
2021/12/23 13:27:50;;;;;;;;;25.50;24.75;;;;;;;;5137365;27;45377;-80
2021/12/23 13:30:15;;;;;;;;;29.00;25.33;;;;;;;;5137201;27;45471;-80
2021/12/23 13:32:41;;;;;;;;;29.67;28.00;;;;;;;;5136979;27;45316;-81
2021/12/23 13:35:10;;;;;;;;;26.00;23.33;;;;;;;;5137141;27;45424;-80
2021/12/23 13:37:40;;;;;;;;;29.00;25.50;;;;;;;;5137037;27;45392;-81
2021/12/23 13:40:06;;;;;;;;;25.25;24.25;;;;;;;;5136774;27;45549;-81
2021/12/23 13:42:31;;;;;;;;;32.75;25.50;;;;;;;;5136614;27;45362;-80
2021/12/23 13:44:56;;;;;;;;;29.00;28.00;;;;;;;;5137027;27;45568;-82
2021/12/23 13:47:22;;;;;;;;;27.25;23.25;;;;;;;;5136989;27;45467;-80
2021/12/23 13:49:53;;;;;;;;;28.75;25.50;;;;;;;;5118161;27;45441;-80
2021/12/23 13:52:18;;;;;;;;;21.75;20.50;;;;;;;;5136288;27;45466;-81
2021/12/23 13:54:43;;;;;;;;;33.67;27.67;;;;;;;;5117948;27;45388;-80
2021/12/23 13:57:10;;;;;;;;;26.67;24.67;;;;;;;;5137400;27;45371;-81
2021/12/23 13:59:35;;;;;;;;;27.50;23.50;;;;;;;;5117932;27;45381;-80
2021/12/23 14:02:01;;;;;;;;;27.50;25.50;;;;;;;;5117762;27;48140;-81
2021/12/23 14:04:31;;;;;;;;;30.67;25.00;;;;;;;;5117680;27;45597;-81
2021/12/23 14:06:56;;;;;;;;;26.25;24.25;;;;;;;;5117881;27;45522;-81
2021/12/23 14:09:35;;;;;;;;;25.00;23.67;;;;;;;;5117842;27;45466;-80
2021/12/23 14:12:00;;;;;;;;;29.75;28.00;;;;;;;;5136446;27;45412;-81
2021/12/23 14:14:26;;;;;;;;;23.00;21.75;;;;;;;;5117759;27;45277;-81
2021/12/23 14:16:51;;;;;;;;;29.25;25.75;;;;;;;;5117748;27;45377;-80
2021/12/23 14:19:39;;;;;;;;;34.00;29.33;;;;;;;;5136443;27;45440;-84
2021/12/23 14:24:51;;;;;;;;;26.75;25.50;;;;;;;;5135318;27;45356;-80
2021/12/23 14:27:16;;;;;;;;;32.00;27.75;;;;;;;;5117673;27;45452;-80
2021/12/23 14:29:41;;;;;;;;;27.00;24.33;;;;;;;;5136402;27;45836;-80
2021/12/23 14:32:06;;;;;;;;;28.67;27.33;;;;;;;;5135768;27;45534;-81
2021/12/23 14:34:33;;;;;;;;;28.00;25.25;;;;;;;;5135624;27;45281;-82
2021/12/23 14:36:59;;;;;;;;;30.00;28.25;;;;;;;;5135556;27;45402;-80
2021/12/23 14:39:26;;;;;;;;;28.75;23.25;;;;;;;;5117419;27;45298;-80
2021/12/23 14:41:52;;;;;;;;;27.75;23.25;;;;;;;;5117117;27;47469;-81
2021/12/23 14:44:18;;;;;;;;;24.00;23.75;;;;;;;;5117374;27;45471;-81
2021/12/23 14:46:45;;;;;;;;;27.67;24.67;;;;;;;;5117667;27;45636;-80
2021/12/23 14:49:53;;;;;;;;;29.75;26.75;;;;;;;;5117249;27;45519;-81
2021/12/23 14:52:13;;;;;;;;;30.75;26.25;;;;;;;;5134607;27;45345;-80
2021/12/23 14:54:49;;;;;;;;;26.50;25.00;;;;;;;;5135728;27;45370;-80
2021/12/23 14:57:15;;;;;;;;;32.25;25.50;;;;;;;;5117137;27;45347;-80
2021/12/23 14:59:49;;;;;;;;;32.00;31.25;;;;;;;;5135462;27;45517;-80
2021/12/23 15:02:17;;;;;;;;;32.25;28.00;;;;;;;;5117007;27;47073;-80
2021/12/23 15:04:58;;;;;;;;;29.75;25.00;;;;;;;;5116654;27;45380;-80
2021/12/23 15:07:24;;;;;;;;;31.75;29.75;;;;;;;;5116668;27;45508;-81
2021/12/23 15:09:55;;;;;;;;;33.00;29.00;;;;;;;;5135752;27;45551;-82
2021/12/23 15:12:20;;;;;;;;;30.75;28.50;;;;;;;;5117010;27;47232;-81
2021/12/23 15:14:48;;;;;;;;;30.67;27.67;;;;;;;;5135619;27;45286;-81
2021/12/23 15:17:19;;;;;;;;;30.00;28.25;;;;;;;;5135880;27;45703;-80
2021/12/23 15:19:50;;;;;;;;;27.50;26.25;;;;;;;;5135961;27;45424;-84
2021/12/23 15:22:23;;;;;;;;;32.75;27.75;;;;;;;;5116322;27;47352;-81
2021/12/23 15:25:05;;;;;;;;;34.00;27.75;;;;;;;;5116599;27;45421;-81
2021/12/23 15:27:31;;;;;;;;;31.50;27.25;;;;;;;;5116697;27;45364;-80
2021/12/23 15:30:01;;;;;;;;;32.00;28.50;;;;;;;;5116516;27;45637;-79
2021/12/23 15:32:28;;;;;;;;;32.75;29.50;;;;;;;;5116533;27;48260;-80